Time;durP1;ratioP1;P1;durP2;ratioP2;P2;SDS_P1;SDS_P2;PMS_P1;PMS_P2;Temp;Humidity;BMP_temperature;BMP_pressure;BME280_temperature;BME280_humidity;BME280_pressure;Samples;Min_cycle;Max_cycle;Signal;HPM_P1;HPM_P2
2022/09/03 00:02:09;;;;;;;3.63;1.40;;;16.00;79.70;;;;;;5093483;28;20439;-51
2022/09/03 00:04:43;;;;;;;2.97;1.63;;;16.10;79.90;;;;;;5093464;28;20499;-51
2022/09/03 00:07:18;;;;;;;4.80;1.20;;;16.10;80.10;;;;;;5093543;28;20944;-51
2022/09/03 00:09:49;;;;;;;3.37;1.23;;;15.90;80.00;;;;;;5093215;28;20495;-51
2022/09/03 00:12:22;;;;;;;7.10;1.93;;;15.90;80.10;;;;;;5093418;28;20490;-51
2022/09/03 00:14:53;;;;;;;2.30;1.37;;;16.00;80.20;;;;;;5093492;28;20562;-51
2022/09/03 00:17:25;;;;;;;4.10;1.93;;;16.00;80.30;;;;;;5108781;28;20473;-51
2022/09/03 00:19:56;;;;;;;3.60;1.80;;;15.80;80.20;;;;;;5092923;28;20923;-51
2022/09/03 00:22:27;;;;;;;1.67;1.20;;;16.00;80.60;;;;;;5092882;28;20453;-51
2022/09/03 00:24:59;;;;;;;3.80;1.50;;;16.00;80.70;;;;;;5093091;28;20471;-50
2022/09/03 00:27:28;;;;;;;2.90;1.27;;;16.00;80.80;;;;;;5093217;28;20957;-51
2022/09/03 00:29:59;;;;;;;2.27;1.53;;;16.30;81.40;;;;;;5092830;28;20441;-50
2022/09/03 00:32:34;;;;;;;4.00;1.80;;;15.80;80.90;;;;;;5092801;28;20439;-51
2022/09/03 00:35:04;;;;;;;2.93;1.77;;;15.70;80.90;;;;;;5093075;28;20485;-50
2022/09/03 00:37:32;;;;;;;2.00;1.13;;;15.90;81.40;;;;;;5093292;28;20444;-51
2022/09/03 00:40:02;;;;;;;1.70;1.23;;;15.70;81.20;;;;;;5092655;28;20441;-51
2022/09/03 00:42:42;;;;;;;5.17;1.60;;;15.80;81.60;;;;;;5093025;28;20444;-51
2022/09/03 00:45:21;;;;;;;2.67;1.40;;;15.60;81.40;;;;;;5092839;28;20973;-51
2022/09/03 00:48:03;;;;;;;2.60;2.07;;;15.80;81.90;;;;;;5093045;28;20490;-51
2022/09/03 00:50:41;;;;;;;3.27;1.20;;;15.70;81.80;;;;;;5107950;28;20467;-49
2022/09/03 00:53:16;;;;;;;4.30;1.80;;;16.20;82.50;;;;;;5092743;28;20421;-49
2022/09/03 00:55:57;;;;;;;2.90;1.67;;;16.00;82.30;;;;;;5092910;28;20487;-50
2022/09/03 00:58:44;;;;;;;2.30;1.40;;;15.50;81.80;;;;;;5092633;28;20924;-50
2022/09/03 01:01:15;;;;;;;2.43;1.30;;;15.90;82.50;;;;;;5092521;28;20806;-50
2022/09/03 01:03:50;;;;;;;2.43;1.40;;;15.50;82.30;;;;;;5092657;28;21063;-49
2022/09/03 01:06:19;;;;;;;2.87;1.53;;;15.60;82.50;;;;;;5092787;28;20444;-50
2022/09/03 01:09:01;;;;;;;2.30;1.30;;;15.60;82.60;;;;;;5092067;28;20441;-50
2022/09/03 01:11:41;;;;;;;3.50;1.60;;;15.30;82.30;;;;;;5092410;28;20428;-48
2022/09/03 01:14:19;;;;;;;5.60;1.57;;;15.20;82.20;;;;;;5092028;28;20455;-51
2022/09/03 01:16:54;;;;;;;3.43;1.70;;;15.20;82.50;;;;;;5092239;28;20431;-51
2022/09/03 01:19:42;;;;;;;2.93;1.80;;;15.30;82.70;;;;;;5091973;28;20441;-51
2022/09/03 01:22:29;;;;;;;3.57;1.80;;;15.20;82.80;;;;;;5107940;28;20441;-50
2022/09/03 01:25:16;;;;;;;2.00;1.23;;;15.80;83.60;;;;;;5092275;28;20460;-51
2022/09/03 01:27:58;;;;;;;4.10;1.57;;;15.40;83.30;;;;;;5092421;28;20839;-50
2022/09/03 01:30:25;;;;;;;2.90;1.43;;;15.30;83.30;;;;;;5091843;28;20945;-49
2022/09/03 01:32:59;;;;;;;2.30;1.70;;;15.40;83.80;;;;;;5107248;28;20445;-50
2022/09/03 01:35:34;;;;;;;2.63;1.40;;;15.40;83.90;;;;;;5091600;28;20488;-50
2022/09/03 01:38:12;;;;;;;2.87;1.70;;;15.20;83.90;;;;;;5092094;28;20443;-50
2022/09/03 01:40:47;;;;;;;2.50;1.40;;;15.40;84.30;;;;;;5092307;28;20956;-50
2022/09/03 01:43:35;;;;;;;3.33;1.50;;;15.30;84.20;;;;;;5092042;28;20465;-50
2022/09/03 01:46:12;;;;;;;2.10;1.20;;;15.20;84.30;;;;;;5092219;28;20430;-49
2022/09/03 01:48:45;;;;;;;4.30;1.60;;;14.90;84.00;;;;;;5091370;28;20421;-50
2022/09/03 01:51:19;;;;;;;3.33;1.47;;;15.20;84.40;;;;;;5092037;28;20437;-50
2022/09/03 01:54:03;;;;;;;2.30;1.30;;;14.90;84.20;;;;;;5091919;28;20978;-49
2022/09/03 01:56:45;;;;;;;3.37;1.53;;;15.10;84.50;;;;;;5091926;28;20432;-50
2022/09/03 01:59:21;;;;;;;2.47;1.90;;;15.30;84.80;;;;;;5091618;28;20444;-50
2022/09/03 02:01:55;;;;;;;3.00;1.80;;;15.20;84.80;;;;;;5091644;28;20435;-50
2022/09/03 02:04:25;;;;;;;4.67;1.93;;;15.20;84.90;;;;;;5107535;28;20469;-50
2022/09/03 02:06:53;;;;;;;2.23;1.67;;;15.50;85.40;;;;;;5092010;28;20441;-51
2022/09/03 02:09:20;;;;;;;2.10;1.50;;;15.10;85.10;;;;;;5091461;28;20440;-50
2022/09/03 02:11:56;;;;;;;2.63;2.07;;;14.80;84.90;;;;;;5092102;28;20474;-51
2022/09/03 02:14:26;;;;;;;1.90;1.33;;;15.10;85.40;;;;;;5091414;28;20880;-50
2022/09/03 02:16:54;;;;;;;2.20;1.67;;;15.10;85.40;;;;;;5091672;28;20429;-51
2022/09/03 02:19:23;;;;;;;2.20;1.57;;;15.30;85.60;;;;;;5091358;28;20440;-51
2022/09/03 02:21:52;;;;;;;3.20;1.80;;;15.00;85.50;;;;;;5091682;28;20432;-50
2022/09/03 02:24:19;;;;;;;2.73;1.47;;;15.50;86.10;;;;;;5091767;28;21005;-50
2022/09/03 02:26:46;;;;;;;3.00;1.60;;;15.50;86.20;;;;;;5091652;28;20435;-50
2022/09/03 02:29:13;;;;;;;2.90;1.40;;;15.00;85.70;;;;;;5091249;28;20498;-51
2022/09/03 02:31:41;;;;;;;1.77;1.30;;;15.00;85.90;;;;;;5090126;28;20451;-51
2022/09/03 02:34:08;;;;;;;3.90;1.43;;;15.20;86.10;;;;;;5107079;28;20468;-51
2022/09/03 02:36:38;;;;;;;1.93;1.10;;;14.70;85.60;;;;;;5091711;28;20452;-50
2022/09/03 02:39:05;;;;;;;3.13;1.57;;;14.60;85.70;;;;;;5091394;28;20437;-50
2022/09/03 02:41:32;;;;;;;1.50;1.23;;;14.90;86.30;;;;;;5091348;28;20433;-49
2022/09/03 02:44:04;;;;;;;7.57;1.40;;;14.70;86.20;;;;;;5091277;28;20448;-51
2022/09/03 02:46:36;;;;;;;4.33;1.30;;;14.80;86.50;;;;;;5094516;28;20432;-50
2022/09/03 02:49:04;;;;;;;2.53;1.30;;;14.80;86.70;;;;;;5095008;28;20792;-49
2022/09/03 02:51:35;;;;;;;2.73;1.53;;;14.80;86.80;;;;;;5095245;28;20842;-50
2022/09/03 02:54:02;;;;;;;2.60;1.63;;;14.70;86.80;;;;;;5094946;28;20467;-50
2022/09/03 02:56:28;;;;;;;7.60;2.03;;;15.10;87.40;;;;;;5095158;28;20495;-51
2022/09/03 02:58:55;;;;;;;2.47;1.70;;;15.20;87.80;;;;;;5094550;28;20433;-50
2022/09/03 03:01:23;;;;;;;3.40;1.40;;;15.00;87.50;;;;;;5095004;28;20452;-50
2022/09/03 03:03:49;;;;;;;3.00;1.60;;;14.80;87.40;;;;;;5094877;28;20448;-50
2022/09/03 03:06:19;;;;;;;4.03;1.43;;;14.30;87.00;;;;;;5110462;28;20540;-50
2022/09/03 03:08:46;;;;;;;4.17;2.00;;;14.80;87.70;;;;;;5094548;28;20468;-51
2022/09/03 03:11:17;;;;;;;2.97;1.60;;;14.50;87.50;;;;;;5094843;28;20440;-49
2022/09/03 03:13:44;;;;;;;3.37;1.80;;;14.30;87.50;;;;;;5094697;28;20460;-50
2022/09/03 03:16:12;;;;;;;4.80;1.87;;;15.00;88.50;;;;;;5094536;28;20476;-51
2022/09/03 03:18:39;;;;;;;3.40;1.57;;;14.80;88.40;;;;;;5094228;28;20444;-49
2022/09/03 03:21:08;;;;;;;3.63;1.70;;;14.40;88.00;;;;;;5094475;28;20444;-51
2022/09/03 03:23:36;;;;;;;2.57;1.70;;;14.40;88.20;;;;;;5094578;28;20459;-50
2022/09/03 03:26:05;;;;;;;2.67;1.70;;;14.60;88.50;;;;;;5094779;28;20806;-50
2022/09/03 03:28:32;;;;;;;2.50;1.83;;;14.50;88.40;;;;;;5093662;28;20429;-51
2022/09/03 03:30:59;;;;;;;4.43;1.80;;;14.40;88.50;;;;;;5094385;28;20966;-50
2022/09/03 03:33:26;;;;;;;2.60;2.00;;;14.30;88.50;;;;;;5093990;28;20460;-49
2022/09/03 03:35:53;;;;;;;2.30;1.50;;;14.30;88.60;;;;;;5094196;28;20556;-50
2022/09/03 03:38:20;;;;;;;4.53;1.80;;;14.20;88.70;;;;;;5094504;28;20820;-50
2022/09/03 03:40:48;;;;;;;2.17;1.63;;;14.50;89.00;;;;;;5094464;28;20436;-49
2022/09/03 03:43:14;;;;;;;8.43;2.60;;;14.40;89.10;;;;;;5094390;28;20429;-49
2022/09/03 03:45:41;;;;;;;5.80;1.90;;;14.40;89.10;;;;;;5094114;28;20436;-49
2022/09/03 03:48:07;;;;;;;2.77;1.50;;;14.60;89.50;;;;;;5094319;28;20443;-49
2022/09/03 03:50:34;;;;;;;4.47;1.87;;;14.10;88.90;;;;;;5093756;28;20436;-50
2022/09/03 03:53:01;;;;;;;2.20;1.70;;;14.00;88.90;;;;;;5094400;28;20428;-50
2022/09/03 03:55:27;;;;;;;2.63;1.73;;;14.10;89.10;;;;;;5094242;28;20471;-50
2022/09/03 03:57:55;;;;;;;1.90;1.53;;;14.30;89.30;;;;;;5093227;28;20439;-49
2022/09/03 04:00:22;;;;;;;3.03;1.90;;;14.70;89.80;;;;;;5093598;28;20478;-49
2022/09/03 04:02:48;;;;;;;3.87;2.00;;;14.40;89.40;;;;;;5093773;28;20435;-50
2022/09/03 04:05:15;;;;;;;3.47;2.07;;;14.30;89.30;;;;;;5094151;28;20518;-50
2022/09/03 04:07:43;;;;;;;2.90;1.73;;;14.60;89.80;;;;;;5109452;28;20437;-52
2022/09/03 04:10:10;;;;;;;6.23;2.23;;;14.60;89.90;;;;;;5093523;28;20470;-50
2022/09/03 04:12:36;;;;;;;2.50;1.83;;;14.30;89.60;;;;;;5093634;28;20495;-49
2022/09/03 04:15:05;;;;;;;5.03;1.63;;;14.30;89.70;;;;;;5093883;28;20961;-50
2022/09/03 04:17:32;;;;;;;2.00;1.80;;;14.30;89.70;;;;;;5093607;28;20498;-50
2022/09/03 04:19:58;;;;;;;5.00;1.90;;;14.40;90.00;;;;;;5093155;28;20510;-50
2022/09/03 04:22:25;;;;;;;4.20;2.07;;;14.20;89.80;;;;;;5093526;28;20433;-49
2022/09/03 04:24:52;;;;;;;3.20;1.87;;;14.10;89.80;;;;;;5103439;22;20508;-47
2022/09/03 04:27:18;;;;;;;4.47;2.10;;;14.30;90.20;;;;;;5073462;28;20426;-49
2022/09/03 04:29:45;;;;;;;4.40;1.70;;;14.30;90.20;;;;;;5073077;28;20441;-49
2022/09/03 04:34:57;;;;;;;4.80;2.37;;;14.30;90.40;;;;;;5073278;28;20452;-49
2022/09/03 04:37:23;;;;;;;2.87;1.83;;;14.40;90.70;;;;;;5074838;28;20426;-49
2022/09/03 04:39:50;;;;;;;2.67;1.97;;;14.20;90.80;;;;;;5073621;28;20775;-48
2022/09/03 04:42:16;;;;;;;2.03;1.63;;;14.40;91.00;;;;;;5073690;28;20436;-48
2022/09/03 04:44:43;;;;;;;3.10;2.30;;;14.30;91.00;;;;;;5073916;28;20459;-47
2022/09/03 04:47:10;;;;;;;3.40;2.00;;;14.20;91.00;;;;;;5073987;28;20427;-47
2022/09/03 04:49:39;;;;;;;6.13;2.80;;;14.30;91.20;;;;;;5074448;28;20440;-47
2022/09/03 04:52:05;;;;;;;4.13;2.63;;;14.40;91.20;;;;;;5072896;28;20449;-49
2022/09/03 04:54:32;;;;;;;6.37;2.43;;;14.40;91.30;;;;;;5072437;28;20467;-48
2022/09/03 04:56:58;;;;;;;4.03;2.40;;;14.30;91.30;;;;;;5072378;28;20477;-48
2022/09/03 04:59:25;;;;;;;3.03;1.83;;;14.30;91.50;;;;;;5072060;28;20433;-48
2022/09/03 05:01:52;;;;;;;7.40;2.80;;;14.40;91.70;;;;;;5072059;28;20803;-48
2022/09/03 05:04:18;;;;;;;3.03;2.07;;;14.50;91.80;;;;;;5072013;28;20479;-47
2022/09/03 05:06:46;;;;;;;3.27;2.13;;;14.40;91.70;;;;;;5072073;28;20468;-48
2022/09/03 05:09:13;;;;;;;5.03;2.10;;;14.50;91.80;;;;;;5071568;28;21090;-47
2022/09/03 05:11:40;;;;;;;3.87;2.50;;;14.50;91.90;;;;;;5072339;28;20499;-48
2022/09/03 05:14:10;;;;;;;3.73;2.43;;;14.50;91.80;;;;;;5071909;28;20455;-48
2022/09/03 05:16:37;;;;;;;6.30;2.33;;;14.70;92.00;;;;;;5071804;28;20491;-48
2022/09/03 05:19:06;;;;;;;6.67;2.60;;;14.60;91.90;;;;;;5071506;28;20436;-48
2022/09/03 05:21:34;;;;;;;7.30;2.20;;;14.60;91.90;;;;;;5071828;28;20505;-48
2022/09/03 05:24:03;;;;;;;3.83;2.60;;;14.60;92.10;;;;;;5071472;28;20465;-49
2022/09/03 05:26:32;;;;;;;7.40;2.17;;;14.60;92.20;;;;;;5071690;28;20934;-48
2022/09/03 05:29:00;;;;;;;3.63;2.17;;;14.60;92.40;;;;;;5071537;28;20819;-49
2022/09/03 05:31:30;;;;;;;3.30;2.30;;;14.60;92.40;;;;;;5071757;28;20440;-49
2022/09/03 05:33:59;;;;;;;5.03;3.13;;;14.60;92.50;;;;;;5071618;28;20445;-49
2022/09/03 05:36:28;;;;;;;2.97;2.43;;;14.90;92.60;;;;;;5071492;28;20477;-48
2022/09/03 05:38:56;;;;;;;3.10;2.37;;;14.80;92.60;;;;;;5071137;28;20452;-47
2022/09/03 05:41:24;;;;;;;3.27;2.23;;;14.90;92.60;;;;;;5071611;28;21120;-49
2022/09/03 05:43:54;;;;;;;3.53;2.30;;;15.10;92.50;;;;;;5071661;28;20446;-48
2022/09/03 05:46:26;;;;;;;4.53;2.60;;;15.30;92.80;;;;;;5070337;28;20541;-48
2022/09/03 05:48:53;;;;;;;2.87;2.00;;;15.40;92.30;;;;;;5071120;28;20469;-47
2022/09/03 05:51:20;;;;;;;4.30;2.27;;;15.50;92.20;;;;;;5071304;28;20997;-48
2022/09/03 05:53:47;;;;;;;6.50;2.30;;;15.50;92.10;;;;;;5071239;28;20454;-51
2022/09/03 05:56:17;;;;;;;3.63;2.40;;;15.70;92.20;;;;;;5071290;28;20822;-48
2022/09/03 05:58:46;;;;;;;3.17;2.30;;;15.50;92.00;;;;;;5071291;28;20925;-48
2022/09/03 06:01:14;;;;;;;5.00;2.40;;;15.50;92.00;;;;;;5072524;28;20980;-48
2022/09/03 06:03:42;;;;;;;5.60;2.20;;;15.60;92.10;;;;;;5071210;28;20449;-48
2022/09/03 06:06:09;;;;;;;4.67;2.20;;;15.40;92.10;;;;;;5071403;28;20430;-47
2022/09/03 06:08:37;;;;;;;8.50;2.40;;;15.40;92.10;;;;;;5071122;28;20430;-49
2022/09/03 06:11:04;;;;;;;4.63;2.20;;;15.40;92.20;;;;;;5070218;28;20476;-48
2022/09/03 06:13:32;;;;;;;5.33;2.33;;;15.50;92.30;;;;;;5071200;28;20436;-49
2022/09/03 06:16:01;;;;;;;5.17;2.53;;;15.60;92.30;;;;;;5071316;28;20469;-49
2022/09/03 06:18:28;;;;;;;4.00;2.47;;;15.70;92.20;;;;;;5071202;28;20500;-48
2022/09/03 06:20:55;;;;;;;3.10;2.10;;;15.70;92.10;;;;;;5073617;28;20835;-47
2022/09/03 06:23:22;;;;;;;4.53;2.53;;;15.90;92.10;;;;;;5074789;28;20465;-48
2022/09/03 06:25:58;;;;;;;5.00;2.63;;;16.00;92.00;;;;;;5075401;28;20441;-48
2022/09/03 06:28:26;;;;;;;3.70;2.03;;;16.00;91.80;;;;;;5075054;28;20429;-48
2022/09/03 06:30:52;;;;;;;6.80;2.63;;;16.00;91.70;;;;;;5075191;28;20499;-49
2022/09/03 06:33:23;;;;;;;7.23;2.80;;;16.10;91.80;;;;;;5074492;28;20483;-48
2022/09/03 06:35:56;;;;;;;3.20;2.20;;;16.20;91.70;;;;;;5074864;28;20569;-49
2022/09/03 06:38:23;;;;;;;4.20;2.30;;;16.50;91.70;;;;;;5074345;28;20968;-50
2022/09/03 06:40:52;;;;;;;4.37;2.50;;;16.50;91.50;;;;;;5074533;28;20890;-49
2022/09/03 06:43:19;;;;;;;3.63;1.77;;;16.50;91.20;;;;;;5074207;28;20437;-49
2022/09/03 06:45:53;;;;;;;4.53;2.13;;;16.50;91.10;;;;;;5074548;28;20439;-49
2022/09/03 06:48:21;;;;;;;4.73;2.80;;;16.30;91.10;;;;;;5074916;28;20900;-49
2022/09/03 06:50:54;;;;;;;3.37;2.03;;;16.30;91.20;;;;;;5074784;28;20456;-49
2022/09/03 06:53:23;;;;;;;3.57;2.20;;;16.40;91.40;;;;;;5074954;28;20434;-49
2022/09/03 06:55:53;;;;;;;3.00;2.00;;;16.20;91.30;;;;;;5074477;28;20427;-49
2022/09/03 06:58:20;;;;;;;6.30;2.23;;;16.30;91.30;;;;;;5074970;28;20941;-49
2022/09/03 07:00:48;;;;;;;4.70;2.07;;;16.40;91.20;;;;;;5074516;28;20447;-49
2022/09/03 07:03:15;;;;;;;3.57;2.00;;;16.60;91.20;;;;;;5074642;28;20533;-48
2022/09/03 07:05:43;;;;;;;4.30;2.37;;;16.40;90.90;;;;;;5074322;28;20450;-48
2022/09/03 07:08:10;;;;;;;4.30;2.40;;;16.70;90.90;;;;;;5073836;28;20465;-48
2022/09/03 07:10:37;;;;;;;3.80;2.40;;;16.90;90.70;;;;;;5073893;28;20851;-48
2022/09/03 07:13:05;;;;;;;3.63;2.03;;;16.90;90.50;;;;;;5074002;28;20422;-49
2022/09/03 07:15:32;;;;;;;4.60;1.93;;;17.30;90.40;;;;;;5074064;28;20470;-50
2022/09/03 07:17:59;;;;;;;3.83;2.10;;;17.50;90.20;;;;;;5073967;28;20485;-50
2022/09/03 07:20:26;;;;;;;3.67;1.73;;;17.50;90.00;;;;;;5073665;28;20435;-48
2022/09/03 07:22:56;;;;;;;3.60;2.10;;;17.90;90.10;;;;;;5073836;28;20492;-49
2022/09/03 07:25:23;;;;;;;3.40;2.20;;;17.70;89.60;;;;;;5073898;28;20537;-48
2022/09/03 07:27:50;;;;;;;8.90;2.07;;;17.90;89.40;;;;;;5073682;28;20464;-49
2022/09/03 07:30:18;;;;;;;2.57;1.70;;;17.80;89.40;;;;;;5073449;28;20442;-49
2022/09/03 07:32:45;;;;;;;5.70;2.63;;;17.90;89.30;;;;;;5072359;28;20436;-49
2022/09/03 07:35:12;;;;;;;2.30;1.90;;;17.90;88.90;;;;;;5074096;28;20457;-47
2022/09/03 07:37:41;;;;;;;2.70;1.90;;;18.20;88.80;;;;;;5073746;28;20471;-49
2022/09/03 07:40:10;;;;;;;2.63;1.57;;;18.00;87.90;;;;;;5073759;28;20762;-48
2022/09/03 07:42:37;;;;;;;3.70;2.17;;;18.10;87.50;;;;;;5073694;28;20432;-48
2022/09/03 07:45:08;;;;;;;4.37;1.97;;;18.10;87.20;;;;;;5073197;28;20440;-50
2022/09/03 07:47:35;;;;;;;2.90;1.80;;;18.10;86.80;;;;;;5072495;28;20460;-48
2022/09/03 07:50:03;;;;;;;3.00;2.00;;;17.70;86.50;;;;;;5073129;28;20799;-48
2022/09/03 07:52:30;;;;;;;5.40;2.30;;;18.10;86.70;;;;;;5073213;28;20444;-48
2022/09/03 07:54:56;;;;;;;3.20;1.90;;;18.00;86.70;;;;;;5073066;28;20452;-48
2022/09/03 07:57:25;;;;;;;3.00;1.73;;;18.00;87.40;;;;;;5072996;28;20480;-47
2022/09/03 07:59:51;;;;;;;2.23;1.70;;;18.10;86.40;;;;;;5072918;28;20433;-48
2022/09/03 08:02:18;;;;;;;3.43;2.43;;;18.00;85.80;;;;;;5071936;28;20448;-48
2022/09/03 08:04:44;;;;;;;7.83;2.13;;;17.80;85.50;;;;;;5073462;28;20441;-49
2022/09/03 08:07:11;;;;;;;2.23;1.70;;;18.30;86.00;;;;;;5072908;28;20440;-48
2022/09/03 08:09:38;;;;;;;3.20;1.70;;;18.10;86.20;;;;;;5072448;28;20425;-50
2022/09/03 08:12:05;;;;;;;2.67;1.50;;;17.90;86.00;;;;;;5071697;28;20488;-49
2022/09/03 08:14:33;;;;;;;4.50;1.93;;;18.30;85.80;;;;;;5072823;28;20570;-49
2022/09/03 08:16:59;;;;;;;9.93;2.47;;;18.20;84.70;;;;;;5071096;28;20544;-48
2022/09/03 08:19:26;;;;;;;4.30;1.53;;;18.40;84.90;;;;;;5072562;28;20440;-48
2022/09/03 08:21:53;;;;;;;4.40;1.93;;;18.40;85.10;;;;;;5072839;28;20797;-49
2022/09/03 08:24:23;;;;;;;2.63;1.90;;;18.40;84.80;;;;;;5072837;28;20461;-48
2022/09/03 08:26:50;;;;;;;2.70;2.07;;;18.40;84.70;;;;;;5072578;28;20824;-49
2022/09/03 08:29:16;;;;;;;3.37;2.13;;;18.50;84.90;;;;;;5072911;28;20437;-50
2022/09/03 08:31:44;;;;;;;3.83;1.83;;;18.40;84.70;;;;;;5072586;28;20437;-48
2022/09/03 08:34:13;;;;;;;5.63;2.23;;;18.50;84.60;;;;;;5072334;28;20453;-48
2022/09/03 08:36:41;;;;;;;4.77;2.10;;;18.60;84.80;;;;;;5072117;28;20483;-50
2022/09/03 08:39:09;;;;;;;4.80;1.80;;;18.60;84.40;;;;;;5071783;28;20436;-48
2022/09/03 08:41:48;;;;;;;2.67;1.60;;;18.60;84.30;;;;;;5072243;28;20441;-48
2022/09/03 08:44:23;;;;;;;5.03;3.70;;;18.60;85.20;;;;;;5071858;28;20451;-49
2022/09/03 08:47:00;;;;;;;6.07;2.70;;;18.60;85.40;;;;;;5072130;28;20429;-48
2022/09/03 08:49:31;;;;;;;3.30;1.50;;;18.60;84.90;;;;;;5071735;28;20425;-48
2022/09/03 08:52:04;;;;;;;2.60;1.97;;;18.50;85.30;;;;;;5072320;28;20945;-48
2022/09/03 08:54:35;;;;;;;3.57;1.80;;;18.50;85.60;;;;;;5070851;28;20526;-49
2022/09/03 08:57:03;;;;;;;4.70;2.30;;;18.40;85.20;;;;;;5072151;28;20480;-49
2022/09/03 08:59:32;;;;;;;5.90;1.73;;;18.30;84.90;;;;;;5070689;28;20543;-49
2022/09/03 09:02:10;;;;;;;12.10;2.27;;;18.10;84.80;;;;;;5072380;28;20433;-48
2022/09/03 09:04:49;;;;;;;2.70;1.87;;;18.20;85.10;;;;;;5070971;28;20457;-48
2022/09/03 09:07:25;;;;;;;6.30;2.20;;;18.10;85.10;;;;;;5071867;28;20447;-48
2022/09/03 09:10:00;;;;;;;7.43;3.90;;;18.20;85.80;;;;;;5071632;28;20463;-48
2022/09/03 09:12:35;;;;;;;5.20;2.57;;;18.30;85.90;;;;;;5070477;28;20472;-48
2022/09/03 09:15:11;;;;;;;3.00;2.33;;;18.20;86.00;;;;;;5071529;28;20460;-49
2022/09/03 09:17:56;;;;;;;4.57;2.13;;;18.40;86.40;;;;;;5071303;28;20480;-48
2022/09/03 09:20:32;;;;;;;5.33;2.00;;;18.30;86.20;;;;;;5071552;28;20439;-48
2022/09/03 09:23:03;;;;;;;8.10;2.33;;;18.30;85.40;;;;;;5070563;28;20909;-48
2022/09/03 09:25:31;;;;;;;2.93;2.00;;;18.40;85.20;;;;;;5071356;28;20461;-50
2022/09/03 09:28:01;;;;;;;3.73;1.67;;;18.40;84.90;;;;;;5070043;28;20457;-50
2022/09/03 09:30:29;;;;;;;3.53;1.50;;;18.40;84.20;;;;;;5070864;28;20441;-49
2022/09/03 09:32:59;;;;;;;8.83;2.30;;;18.50;83.10;;;;;;5070094;28;20468;-49
2022/09/03 09:35:26;;;;;;;3.83;1.77;;;18.50;82.90;;;;;;5071300;28;20487;-48
2022/09/03 09:37:55;;;;;;;3.20;1.60;;;18.60;82.40;;;;;;5071463;28;20472;-48
2022/09/03 09:40:32;;;;;;;5.57;2.10;;;18.50;83.30;;;;;;5069756;28;20988;-49
2022/09/03 09:43:20;;;;;;;2.10;1.83;;;18.70;82.60;;;;;;5069830;28;20507;-48
2022/09/03 09:45:49;;;;;;;6.50;1.97;;;18.80;82.30;;;;;;5068336;28;20499;-49
2022/09/03 09:48:25;;;;;;;7.80;1.30;;;18.70;82.40;;;;;;5071264;28;20457;-50
2022/09/03 09:51:04;;;;;;;3.63;1.57;;;18.60;80.20;;;;;;5070166;28;20456;-49
2022/09/03 09:53:31;;;;;;;5.10;1.90;;;18.80;79.10;;;;;;5069708;28;20452;-49
2022/09/03 09:55:59;;;;;;;4.30;1.77;;;18.70;79.80;;;;;;5074099;28;20453;-48
2022/09/03 09:58:29;;;;;;;3.60;1.70;;;18.90;80.10;;;;;;5075103;28;20516;-51
2022/09/03 10:01:06;;;;;;;2.80;1.80;;;18.80;78.90;;;;;;5075542;28;20429;-48
2022/09/03 10:03:35;;;;;;;2.83;1.53;;;19.00;78.30;;;;;;5073979;28;20456;-48
2022/09/03 10:08:47;;;;;;;2.87;1.70;;;19.00;78.70;;;;;;5074602;28;20909;-49
2022/09/03 10:11:18;;;;;;;3.53;1.77;;;19.10;77.70;;;;;;5075138;28;20441;-51
2022/09/03 10:13:48;;;;;;;4.27;1.50;;;19.10;76.90;;;;;;5075232;28;20445;-48
2022/09/03 10:16:21;;;;;;;4.10;1.87;;;19.20;75.90;;;;;;5075256;28;20531;-50
2022/09/03 10:19:00;;;;;;;2.90;1.53;;;19.20;73.30;;;;;;5073584;28;20496;-53
2022/09/03 10:21:33;;;;;;;3.00;1.53;;;19.30;72.50;;;;;;5075011;28;20824;-52
2022/09/03 10:24:15;;;;;;;4.30;2.17;;;19.30;72.10;;;;;;5089058;22;20468;-51
2022/09/03 10:26:44;;;;;;;2.87;1.90;;;19.40;72.50;;;;;;5073489;28;20550;-51
2022/09/03 10:29:15;;;;;;;2.10;1.40;;;19.40;72.00;;;;;;5055273;28;20533;-51
2022/09/03 10:31:54;;;;;;;2.10;1.30;;;19.40;71.70;;;;;;5072962;28;20431;-50
2022/09/03 10:34:36;;;;;;;2.40;1.50;;;19.40;71.60;;;;;;5057653;28;20484;-49
2022/09/03 10:37:22;;;;;;;4.70;1.53;;;19.50;70.60;;;;;;5072452;28;20997;-52
2022/09/03 10:40:02;;;;;;;11.13;1.60;;;19.60;67.60;;;;;;5073357;28;20528;-49
2022/09/03 10:42:44;;;;;;;2.73;1.70;;;19.60;67.70;;;;;;5073697;28;20487;-50
2022/09/03 10:45:19;;;;;;;1.70;1.30;;;19.70;68.10;;;;;;5073335;28;20453;-51
2022/09/03 10:48:22;;;;;;;2.40;1.50;;;19.70;68.80;;;;;;5072902;28;20434;-50
2022/09/03 10:50:56;;;;;;;3.13;1.57;;;19.80;68.60;;;;;;5071717;28;20534;-50
2022/09/03 10:53:48;;;;;;;4.20;1.43;;;19.80;68.70;;;;;;5073209;28;20495;-50
2022/09/03 10:56:22;;;;;;;4.90;1.97;;;19.90;68.00;;;;;;5073142;28;20453;-50
2022/09/03 10:59:03;;;;;;;3.30;1.63;;;20.00;68.10;;;;;;5072764;28;20482;-50
2022/09/03 11:01:41;;;;;;;6.77;1.60;;;20.10;67.90;;;;;;5071828;28;21069;-50
2022/09/03 11:04:22;;;;;;;3.07;1.40;;;20.20;68.10;;;;;;5072090;28;20819;-50
2022/09/03 11:06:53;;;;;;;2.50;1.30;;;20.30;68.40;;;;;;5072664;28;20462;-51
2022/09/03 11:09:23;;;;;;;6.47;3.03;;;20.40;68.10;;;;;;5071426;28;20894;-51
2022/09/03 11:11:55;;;;;;;5.53;1.70;;;20.50;68.00;;;;;;5073094;28;20493;-50
2022/09/03 11:14:31;;;;;;;3.03;1.30;;;20.60;67.90;;;;;;5073155;28;20459;-51
2022/09/03 11:17:06;;;;;;;4.37;1.43;;;20.80;67.50;;;;;;5072991;28;20433;-50
2022/09/03 11:19:36;;;;;;;2.67;1.60;;;21.00;67.40;;;;;;5071155;28;20457;-51
2022/09/03 11:22:07;;;;;;;10.70;2.70;;;21.20;66.80;;;;;;5071612;28;20972;-51
2022/09/03 11:24:38;;;;;;;2.40;1.60;;;21.30;65.80;;;;;;5034654;28;1053377;-51
2022/09/03 11:27:21;;;;;;;4.23;1.60;;;21.60;64.80;;;;;;5073826;28;20205;-51
2022/09/03 11:29:57;;;;;;;3.00;1.40;;;21.70;64.20;;;;;;5072030;28;20448;-52
2022/09/03 11:32:30;;;;;;;2.80;1.60;;;21.70;63.60;;;;;;5072455;28;20870;-50
2022/09/03 11:34:57;;;;;;;3.60;1.60;;;21.80;63.80;;;;;;5073630;28;20460;-50
2022/09/03 11:37:27;;;;;;;4.40;1.70;;;21.80;63.60;;;;;;5073506;28;20468;-50
2022/09/03 11:39:57;;;;;;;6.73;2.30;;;21.80;63.10;;;;;;5071887;28;20859;-49
2022/09/03 11:42:31;;;;;;;3.27;1.60;;;21.80;62.70;;;;;;5071891;28;20521;-50
2022/09/03 11:45:20;;;;;;;3.20;1.80;;;21.80;61.90;;;;;;5073479;28;20460;-50
2022/09/03 11:47:47;;;;;;;4.67;1.77;;;21.90;62.40;;;;;;5071903;28;20451;-50
2022/09/03 11:50:22;;;;;;;6.17;2.63;;;21.80;62.80;;;;;;5072952;28;20505;-52
2022/09/03 11:52:55;;;;;;;2.60;1.67;;;21.70;62.20;;;;;;5073659;28;20448;-51
2022/09/03 11:55:31;;;;;;;5.93;1.70;;;21.70;62.80;;;;;;5073041;28;20966;-50
2022/09/03 11:57:58;;;;;;;2.67;1.77;;;21.90;62.90;;;;;;5072774;28;20468;-50
2022/09/03 12:00:25;;;;;;;2.60;1.80;;;21.70;62.40;;;;;;5072759;28;20444;-51
2022/09/03 12:03:01;;;;;;;3.53;1.70;;;21.70;62.10;;;;;;5072801;28;20441;-51
2022/09/03 12:05:36;;;;;;;2.80;1.93;;;22.00;62.30;;;;;;5072938;28;20822;-51
2022/09/03 12:08:31;;;;;;;4.97;1.73;;;21.90;60.90;;;;;;5071547;28;20795;-49
2022/09/03 12:11:08;;;;;;;6.33;2.90;;;21.90;60.90;;;;;;5073041;28;20483;-50
2022/09/03 12:13:50;;;;;;;6.37;1.53;;;22.00;61.10;;;;;;5071223;28;20457;-51
2022/09/03 12:16:41;;;;;;;5.10;1.50;;;21.80;60.50;;;;;;5071197;28;20461;-52
2022/09/03 12:19:21;;;;;;;2.20;1.40;;;21.90;60.70;;;;;;5069978;28;20490;-51
2022/09/03 12:21:49;;;;;;;3.90;1.77;;;21.90;61.00;;;;;;5072887;28;20448;-51
2022/09/03 12:24:19;;;;;;;2.70;1.43;;;21.90;60.10;;;;;;5070996;28;20475;-51
2022/09/03 12:26:46;;;;;;;5.07;1.63;;;21.90;59.90;;;;;;5072908;28;20434;-52
2022/09/03 12:29:24;;;;;;;2.87;1.87;;;21.90;59.70;;;;;;5072136;28;20464;-50
2022/09/03 12:31:51;;;;;;;2.53;1.50;;;22.00;59.80;;;;;;5071310;28;20938;-50
2022/09/03 12:34:22;;;;;;;5.00;1.37;;;22.10;60.10;;;;;;5072474;28;20479;-51
2022/09/03 12:36:51;;;;;;;3.40;1.57;;;22.10;58.00;;;;;;5072298;28;20532;-52
2022/09/03 12:39:22;;;;;;;1.83;1.13;;;22.10;57.20;;;;;;5071839;28;20480;-50
2022/09/03 12:42:02;;;;;;;2.07;1.60;;;22.20;57.40;;;;;;5072282;28;20534;-50
2022/09/03 12:44:32;;;;;;;2.60;1.43;;;22.40;57.10;;;;;;5072430;28;20803;-50
2022/09/03 12:47:04;;;;;;;5.40;1.70;;;22.50;57.40;;;;;;5072075;28;20426;-50
2022/09/03 12:49:36;;;;;;;3.70;1.50;;;22.60;56.90;;;;;;5071831;28;20423;-50
2022/09/03 12:52:09;;;;;;;3.73;1.57;;;22.60;56.80;;;;;;5072367;28;20521;-50
2022/09/03 12:54:43;;;;;;;4.37;1.33;;;22.70;56.00;;;;;;5072281;28;20475;-50
2022/09/03 12:57:11;;;;;;;5.67;1.53;;;22.70;56.40;;;;;;5070713;28;20446;-50
2022/09/03 12:59:39;;;;;;;2.40;1.20;;;22.60;55.80;;;;;;5069636;28;20487;-51
2022/09/03 13:02:17;;;;;;;5.33;1.67;;;22.80;55.60;;;;;;5072208;28;20446;-52
2022/09/03 13:04:46;;;;;;;2.60;1.87;;;22.70;55.10;;;;;;5072065;28;20451;-50
2022/09/03 13:07:20;;;;;;;3.73;1.53;;;22.90;55.50;;;;;;5070595;28;20443;-51
2022/09/03 13:09:49;;;;;;;4.57;1.30;;;22.90;55.40;;;;;;5071344;28;20470;-51
2022/09/03 13:12:29;;;;;;;3.73;1.43;;;22.80;55.30;;;;;;5071790;28;20427;-50